Terminal Aerodrome Forecast
Issued by NWS Cleveland, OH

Home | Current Version | Previous Version | Graphics & Text | Print | Product List | Glossary On
Versions: 1 2 3 4 5 6 7 8 9 10 11 12 13 14 15 16 17 18 19 20 21 22 23
000
FTUS41 KCLE 270800 AAA
TAFMFD
TAF AMD
KMFD 270835Z 2709/2806 VRB04KT 5SM BR SCT008 OVC015
      TEMPO 2709/2713 3/4SM BR OVC008
     FM271500 22006KT P6SM VCSH SCT015 BKN035
     FM272000 26008KT P6SM VCTS BKN035CB OVC100
      TEMPO 2721/2801 2SM TSRA BR OVC015CB
     FM280500 26006KT 6SM BR OVC035=

USA.gov is the U.S. government's official web portal to all federal, state and local government web resources and services.